Terminal Aerodrome Forecast
Issued by NWS Norman, OK

Home | Current Version | Previous Version | Text Only | Print | Product List | Glossary On
Versions: 1 2 3 4 5 6 7 8 9 10 11 12 13 14 15 16 17 18 19 20 21 22 23 24 25 26 27 28 29 30 31 32 33 34 35 36 37 38 39 40
000
FTUS44 KOUN 051151 CCA
TAFOKC
TAF COR
KOKC 051151Z 0512/0612 18005KT 1/4SM FZFG VV001
      TEMPO 0514/0515 1/2SM FG
     FM051500 16009KT P6SM BKN250
     FM060300 16005KT 5SM BR FEW015
     FM060900 36014KT 6SM BR BKN010=

USA.gov is the U.S. government's official web portal to all federal, state and local government web resources and services.